createdAt,value
2018-11-12T11:25:47.729Z,53.344727
2018-11-12T11:26:07.254Z,53.045654
2018-11-12T11:26:26.825Z,52.941895
2018-11-12T11:26:46.437Z,53.143311
2018-11-12T11:27:05.907Z,53.649902
2018-11-12T11:27:25.427Z,53.344727
2018-11-12T11:27:45.038Z,53.851318
2018-11-12T11:28:04.531Z,54.052734
2018-11-12T11:28:24.130Z,53.753662
2018-11-12T11:28:43.703Z,53.851318
2018-11-12T11:29:03.304Z,53.546143
2018-11-12T11:29:22.913Z,53.4729
2018-11-12T11:29:42.429Z,53.4729
2018-11-12T11:30:05.027Z,53.979492
2018-11-12T11:30:25.182Z,54.486084
2018-11-12T11:30:44.746Z,54.6875
2018-11-12T11:31:04.720Z,54.6875
2018-11-12T11:31:24.272Z,54.6875
2018-11-12T11:31:43.899Z,55.596924
2018-11-12T11:32:03.449Z,56.201172
2018-11-12T11:32:23.124Z,56.201172
2018-11-12T11:36:56.243Z,54.077148
2018-11-12T11:37:35.773Z,53.674316
2018-11-12T11:37:55.858Z,53.979492
2018-11-12T11:38:15.363Z,53.875732
2018-11-12T11:38:34.991Z,53.778076
2018-11-12T11:38:55.660Z,54.180908
2018-11-12T11:39:15.534Z,54.992676
2018-11-12T11:39:35.227Z,54.888916
2018-11-12T11:39:55.148Z,54.486084
2018-11-12T11:40:14.872Z,54.180908
2018-11-12T11:40:34.880Z,53.979492
2018-11-12T11:40:54.611Z,54.382324
2018-11-12T11:41:14.279Z,53.778076
2018-11-12T11:41:33.917Z,53.778076
2018-11-12T11:41:53.667Z,54.284668
2018-11-12T11:42:13.350Z,54.180908
2018-11-12T11:42:33.063Z,53.778076
2018-11-12T11:42:52.730Z,54.284668
2018-11-12T11:43:12.504Z,54.58374
2018-11-12T11:43:32.126Z,54.6875
2018-11-12T11:43:51.783Z,54.382324
2018-11-12T11:44:11.689Z,54.486084
2018-11-12T11:44:31.522Z,54.382324
2018-11-12T11:44:51.266Z,54.077148
2018-11-12T11:45:11.080Z,54.284668
2018-11-12T11:45:31.103Z,54.382324
2018-11-12T11:45:50.850Z,54.284668
2018-11-12T11:46:10.685Z,54.382324
2018-11-12T11:46:31.515Z,54.382324
2018-11-12T11:46:51.239Z,54.888916
2018-11-12T11:47:12.300Z,55.194092
2018-11-12T11:47:32.029Z,54.6875
2018-11-12T11:47:51.694Z,54.6875
2018-11-12T11:48:11.316Z,54.559326
2018-11-12T11:48:30.808Z,54.180908
2018-11-12T11:48:50.522Z,53.851318
2018-11-12T11:49:10.070Z,54.180908
2018-11-12T11:49:29.694Z,54.35791
2018-11-12T11:49:50.323Z,54.486084
2018-11-12T11:50:09.988Z,54.663086
2018-11-12T11:50:29.746Z,54.559326
2018-11-12T11:50:49.214Z,54.663086
2018-11-12T11:51:08.850Z,54.559326
2018-11-12T11:51:28.454Z,54.35791
2018-11-12T11:51:48.071Z,54.486084
2018-11-12T11:52:07.729Z,54.58374
2018-11-12T11:52:27.380Z,54.486084
2018-11-12T11:52:47.001Z,54.486084
2018-11-12T11:53:06.635Z,54.486084
2018-11-12T11:53:26.255Z,54.58374
2018-11-12T11:53:45.894Z,54.888916
2018-11-12T11:54:05.513Z,55.194092
2018-11-12T11:54:25.167Z,55.090332
2018-11-12T11:54:44.786Z,54.6875
2018-11-12T11:55:04.437Z,55.395508
2018-11-12T11:55:24.068Z,55.395508
2018-11-12T11:55:43.707Z,55.9021
2018-11-12T11:56:03.312Z,56.201172
2018-11-12T11:56:23.029Z,56.402588
2018-11-12T11:56:42.709Z,56.811523
2018-11-12T11:57:02.176Z,55.999756
2018-11-12T11:57:21.888Z,55.395508
2018-11-12T11:57:41.595Z,55.194092
2018-11-12T11:58:01.101Z,55.194092
2018-11-12T11:58:20.717Z,55.69458
2018-11-12T11:58:40.348Z,55.69458
2018-11-12T11:58:59.960Z,55.999756
2018-11-12T11:59:19.636Z,55.090332
2018-11-12T11:59:39.279Z,55.090332
2018-11-12T11:59:58.957Z,55.090332
2018-11-12T12:00:18.600Z,55.194092
2018-11-12T12:00:38.302Z,55.090332
2018-11-12T12:00:58.037Z,54.992676
2018-11-12T12:01:17.707Z,54.6875
2018-11-12T12:01:37.304Z,54.6875
2018-11-12T12:01:56.914Z,54.486084
2018-11-12T12:02:16.654Z,54.284668
2018-11-12T12:02:36.250Z,53.979492
2018-11-12T12:02:55.957Z,54.077148
2018-11-12T12:03:15.528Z,54.486084
2018-11-12T12:03:35.166Z,54.888916
2018-11-12T12:03:54.770Z,54.58374
2018-11-12T12:04:15.423Z,54.58374
2018-11-12T12:04:35.038Z,53.979492
2018-11-12T12:04:55.647Z,54.382324
2018-11-12T12:05:15.291Z,54.382324
2018-11-12T12:05:34.939Z,54.180908
2018-11-12T12:05:54.565Z,54.284668
2018-11-12T12:06:14.415Z,54.888916
2018-11-12T12:06:33.948Z,54.785156
2018-11-12T12:06:53.574Z,55.090332
2018-11-12T12:07:13.221Z,55.999756
2018-11-12T12:07:34.188Z,56.103516
2018-11-12T12:07:53.825Z,56.274414
2018-11-12T12:08:13.455Z,55.975342
2018-11-12T12:08:33.144Z,56.176758
2018-11-12T12:08:52.807Z,55.871582
2018-11-12T12:09:12.374Z,55.670166
2018-11-12T12:09:31.962Z,54.052734
2018-11-12T12:09:51.590Z,54.052734
2018-11-12T12:10:11.220Z,54.559326
2018-11-12T12:10:30.847Z,54.663086
2018-11-12T12:10:50.472Z,54.663086
2018-11-12T12:11:10.141Z,54.559326
2018-11-12T12:11:29.779Z,54.455566
2018-11-12T12:11:49.398Z,54.559326
2018-11-12T12:12:09.097Z,54.077148
2018-11-12T12:12:28.796Z,54.25415
2018-11-12T12:12:48.599Z,54.559326
2018-11-12T12:13:08.276Z,55.46875
2018-11-12T12:13:27.886Z,55.36499
2018-11-12T12:13:47.893Z,55.163574
2018-11-12T12:14:07.799Z,55.57251
2018-11-12T12:14:27.845Z,56.072998
2018-11-12T12:14:47.927Z,56.176758
2018-11-12T12:15:09.594Z,56.982422
2018-11-12T12:15:29.407Z,55.670166
2018-11-12T12:15:49.151Z,54.559326
2018-11-12T12:16:09.474Z,53.649902
2018-11-12T12:16:29.800Z,53.851318
2018-11-12T12:16:49.582Z,53.955078
2018-11-12T12:17:09.371Z,53.955078
2018-11-12T12:17:29.231Z,54.052734
2018-11-12T12:17:48.904Z,54.25415
2018-11-12T12:18:08.799Z,54.35791
2018-11-12T12:18:28.497Z,54.663086
2018-11-12T12:18:48.386Z,54.663086
2018-11-12T12:19:09.220Z,54.962158
2018-11-12T12:19:28.772Z,54.559326
2018-11-12T12:19:48.471Z,54.455566
2018-11-12T12:20:08.056Z,54.156494
2018-11-12T12:20:27.727Z,54.156494
2018-11-12T12:20:48.153Z,54.052734
2018-11-12T12:21:08.133Z,54.559326
2018-11-12T12:21:27.849Z,54.559326
2018-11-12T12:21:47.557Z,55.065918
2018-11-12T12:22:07.439Z,55.267334
2018-11-12T12:22:27.263Z,55.670166
2018-11-12T12:22:46.884Z,55.065918
2018-11-12T12:23:06.489Z,55.36499
2018-11-12T12:23:26.143Z,54.760742
2018-11-12T12:23:45.877Z,54.962158
2018-11-12T12:24:05.675Z,55.36499
2018-11-12T12:24:25.464Z,55.670166
2018-11-12T12:24:45.492Z,56.274414
2018-11-12T12:25:05.162Z,57.086182
2018-11-12T12:25:25.806Z,56.781006
2018-11-12T12:25:45.510Z,55.871582
2018-11-12T12:26:05.035Z,55.871582
2018-11-12T12:26:24.712Z,55.444336
2018-11-12T12:26:45.400Z,55.670166
2018-11-12T12:27:05.208Z,55.36499
2018-11-12T12:27:25.021Z,55.57251
2018-11-12T12:27:45.001Z,55.340576
2018-11-12T12:28:04.826Z,55.36499
2018-11-12T12:28:24.739Z,55.340576
2018-11-12T12:28:44.652Z,55.041504
2018-11-12T12:29:04.785Z,54.229736
2018-11-12T12:29:25.530Z,54.632568
2018-11-12T12:29:45.333Z,54.632568
2018-11-12T12:30:05.043Z,54.431152
2018-11-12T12:30:24.808Z,54.534912
2018-11-12T12:30:44.666Z,54.833984
2018-11-12T12:31:04.306Z,54.534912
2018-11-12T12:31:24.305Z,54.229736
2018-11-12T12:31:44.304Z,54.13208
2018-11-12T12:32:04.380Z,54.229736
2018-11-12T12:32:24.167Z,54.431152
2018-11-12T12:32:43.975Z,53.625488
2018-11-12T12:33:03.569Z,53.521729
2018-11-12T12:33:23.294Z,53.320312
2018-11-12T12:33:43.060Z,52.313232
2018-11-12T12:34:02.882Z,52.209473
2018-11-12T12:34:22.472Z,52.410889
2018-11-12T12:34:42.170Z,52.111816
2018-11-12T12:35:01.768Z,52.313232
2018-11-12T12:35:21.490Z,52.313232
2018-11-12T12:35:41.126Z,52.313232
2018-11-12T12:36:00.922Z,52.514648
2018-11-12T12:36:20.750Z,52.612305
2018-11-12T12:36:40.390Z,52.819824
2018-11-12T12:36:59.985Z,53.118896
2018-11-12T12:37:19.656Z,52.313232
2018-11-12T12:37:39.618Z,52.111816
2018-11-12T12:37:59.384Z,53.118896
2018-11-12T12:38:19.012Z,52.209473
2018-11-12T12:38:38.650Z,52.111816
2018-11-12T12:38:58.282Z,52.313232
2018-11-12T12:39:18.032Z,52.819824
2018-11-12T12:39:37.789Z,52.91748
2018-11-12T12:39:57.592Z,52.410889
2018-11-12T12:40:17.571Z,52.514648
2018-11-12T12:40:37.555Z,52.410889
2018-11-12T12:40:57.655Z,52.008057
2018-11-12T12:41:17.622Z,52.313232
2018-11-12T12:41:37.577Z,54.13208
2018-11-12T12:41:57.304Z,53.424072
2018-11-12T12:42:17.093Z,53.320312
2018-11-12T12:42:37.017Z,53.625488
2018-11-12T12:42:56.904Z,54.229736
2018-11-12T12:43:16.689Z,54.431152
2018-11-12T12:43:36.381Z,53.625488
2018-11-12T12:43:56.852Z,53.02124
2018-11-12T12:44:16.929Z,53.424072
2018-11-12T12:44:36.707Z,52.819824
2018-11-12T12:44:56.797Z,53.222656
2018-11-12T12:45:17.009Z,53.320312
2018-11-12T12:45:36.628Z,53.625488
2018-11-12T12:45:56.179Z,53.521729
2018-11-12T12:46:15.744Z,52.91748
2018-11-12T12:46:35.378Z,53.723145
2018-11-12T12:46:55.011Z,54.13208
2018-11-12T12:47:14.644Z,53.424072
2018-11-12T12:47:34.257Z,53.424072
2018-11-12T12:47:54.016Z,53.02124
2018-11-12T12:48:14.185Z,52.313232
2018-11-12T12:48:33.843Z,52.008057
2018-11-12T12:48:53.470Z,52.209473
2018-11-12T12:49:13.149Z,52.612305
2018-11-12T12:49:32.969Z,52.819824
2018-11-12T12:49:52.559Z,52.612305
2018-11-12T12:50:12.145Z,52.410889
2018-11-12T12:50:31.774Z,52.819824
2018-11-12T12:50:51.382Z,52.716064
2018-11-12T21:31:17.060Z,59.020996
2018-11-12T21:31:36.596Z,59.381104
2018-11-12T21:31:56.097Z,60.345459
2018-11-12T21:32:15.650Z,61.413574
2018-11-12T21:32:35.295Z,62.762451
2018-11-12T21:32:54.903Z,64.337158
2018-11-12T21:33:14.477Z,65.081787
2018-11-12T21:33:34.048Z,65.484619
2018-11-12T21:33:53.589Z,66.229248
2018-11-12T21:34:13.131Z,66.766357
2018-11-12T21:34:32.656Z,67.071533
2018-11-12T21:34:52.425Z,67.407227
2018-11-12T21:35:12.148Z,67.504883
2018-11-12T21:35:31.684Z,67.608643
2018-11-12T21:35:51.269Z,67.913818
2018-11-12T21:36:10.776Z,67.944336
2018-11-12T21:36:30.506Z,68.249512
2018-11-12T21:36:51.392Z,68.658447
2018-11-12T21:37:11.107Z,69.061279
2018-11-12T21:37:30.530Z,69.165039
2018-11-12T21:37:50.042Z,69.262695
2018-11-12T21:38:11.035Z,69.091797
2018-11-12T21:38:30.566Z,68.994141
2018-11-12T21:38:50.170Z,69.091797
2018-11-12T21:39:09.782Z,69.195557
2018-11-12T21:39:29.422Z,69.091797
2018-11-12T21:39:49.074Z,69.299316
2018-11-12T21:40:08.669Z,69.53125
2018-11-12T21:40:28.267Z,69.63501
2018-11-12T21:40:47.824Z,69.836426
2018-11-12T21:41:07.405Z,69.836426
2018-11-12T21:41:27.021Z,69.940186
2018-11-12T21:41:46.598Z,69.940186
2018-11-12T21:42:06.123Z,70.275879
2018-11-12T21:42:25.651Z,70.379639
2018-11-12T21:42:45.202Z,70.788574
2018-11-12T21:43:04.816Z,71.020508
2018-11-12T21:43:24.515Z,71.228027
2018-11-12T21:43:44.005Z,71.429443
2018-11-12T21:44:03.502Z,71.533203
2018-11-12T21:44:23.125Z,71.533203
2018-11-12T21:44:42.668Z,71.636963
2018-11-12T21:45:02.179Z,71.636963
2018-11-12T21:45:21.747Z,71.636963
2018-11-12T21:45:49.970Z,71.734619
2018-11-12T21:46:09.524Z,71.533203
2018-11-12T21:46:29.133Z,71.636963
2018-11-12T21:46:48.670Z,71.533203
2018-11-12T21:47:09.339Z,71.398926
2018-11-12T21:47:29.386Z,71.295166
2018-11-12T21:47:49.136Z,71.398926
2018-11-12T21:48:08.755Z,71.398926
2018-11-12T21:48:28.382Z,71.09375
2018-11-12T21:48:48.186Z,70.98999
2018-11-12T21:49:07.751Z,70.88623
2018-11-12T21:49:27.402Z,70.581055
2018-11-12T21:49:47.068Z,70.483398
2018-11-12T21:50:06.615Z,70.483398
2018-11-12T21:50:26.081Z,70.684814
2018-11-12T21:50:45.639Z,70.581055
2018-11-12T21:51:05.220Z,70.275879
2018-11-12T21:51:24.759Z,70.074463
2018-11-12T21:51:44.362Z,70.178223
2018-11-12T21:52:04.878Z,70.178223
2018-11-12T21:52:24.496Z,70.074463
2018-11-12T21:52:44.072Z,70.074463
2018-11-12T21:53:03.681Z,70.074463
2018-11-12T21:53:23.268Z,70.275879
2018-11-12T21:53:42.851Z,70.379639
2018-11-12T21:54:02.483Z,70.581055
2018-11-12T21:54:22.719Z,70.684814
2018-11-12T21:54:42.290Z,70.581055
2018-11-12T21:55:01.837Z,70.581055
2018-11-12T21:55:21.362Z,70.483398
2018-11-12T21:55:40.894Z,70.581055
2018-11-12T21:56:00.460Z,70.684814
2018-11-12T21:56:20.028Z,70.581055
2018-11-12T21:56:39.626Z,70.483398
2018-11-12T21:56:59.348Z,70.178223
2018-11-12T21:57:19.891Z,69.836426
2018-11-12T21:57:39.525Z,69.63501
2018-11-12T21:57:59.045Z,69.63501
2018-11-12T21:58:18.586Z,69.73877
2018-11-12T21:58:38.114Z,69.769287
2018-11-12T21:58:57.601Z,69.970703
2018-11-12T21:59:21.116Z,69.836426
2018-11-12T21:59:40.701Z,69.940186
2018-11-12T22:00:01.193Z,69.940186
2018-11-12T22:00:20.750Z,69.63501
2018-11-12T22:00:41.339Z,69.53125
2018-11-12T22:01:02.842Z,69.53125
2018-11-12T22:01:22.484Z,69.53125
2018-11-12T22:01:42.105Z,69.53125
2018-11-12T22:02:02.632Z,69.63501
2018-11-12T22:02:22.377Z,69.63501
2018-11-12T22:02:41.991Z,69.63501
2018-11-12T22:03:02.494Z,69.73877
2018-11-12T22:03:23.601Z,69.73877
2018-11-12T22:03:46.149Z,69.836426
2018-11-12T22:04:06.013Z,69.836426
2018-11-12T22:04:25.871Z,69.73877
2018-11-12T22:04:45.512Z,69.73877
2018-11-12T22:05:05.203Z,69.73877
2018-11-12T22:05:25.683Z,69.665527
2018-11-12T22:05:45.376Z,69.665527
2018-11-12T22:06:05.072Z,69.769287
2018-11-12T22:06:24.919Z,69.873047
2018-11-12T22:06:44.616Z,70.074463
2018-11-12T22:07:04.228Z,69.873047
2018-11-12T22:07:23.958Z,69.769287
2018-11-12T22:07:43.580Z,69.873047
2018-11-12T22:08:03.158Z,69.970703
2018-11-12T22:08:22.724Z,70.10498
2018-11-12T22:08:42.317Z,70.20874
2018-11-12T22:09:01.889Z,70.410156
2018-11-12T22:09:21.496Z,70.513916
2018-11-12T22:09:41.117Z,70.513916
2018-11-12T22:10:00.815Z,70.617676
2018-11-12T22:10:21.466Z,70.617676
2018-11-12T22:10:41.096Z,70.617676
2018-11-12T22:11:00.652Z,70.617676
2018-11-12T22:11:20.322Z,70.617676
2018-11-12T22:11:39.870Z,70.715332
2018-11-12T22:11:59.476Z,70.617676
2018-11-12T22:12:19.116Z,70.751953
2018-11-12T22:12:38.681Z,70.715332
2018-11-12T22:12:58.353Z,70.513916
2018-11-12T22:13:17.932Z,70.410156
2018-11-12T22:13:37.546Z,70.513916
2018-11-12T22:13:58.103Z,70.550537
2018-11-12T22:14:17.812Z,70.513916
2018-11-12T22:14:37.481Z,70.410156
2018-11-12T22:14:57.247Z,70.20874
2018-11-12T22:15:16.784Z,70.10498
2018-11-12T22:15:36.310Z,70.007324
2018-11-12T22:15:55.874Z,70.10498
2018-11-12T22:16:15.498Z,70.20874
2018-11-12T22:16:35.064Z,70.20874
2018-11-12T22:16:54.959Z,70.239258
2018-11-12T22:17:14.839Z,70.239258
2018-11-12T22:17:34.491Z,70.343018
2018-11-12T22:17:54.176Z,70.343018
2018-11-12T22:18:13.736Z,70.446777
2018-11-12T22:18:33.509Z,70.550537
2018-11-12T22:18:52.973Z,70.751953
2018-11-12T22:19:12.859Z,70.855713
2018-11-12T22:19:32.723Z,70.855713
2018-11-12T22:19:52.217Z,70.855713
2018-11-12T22:20:11.738Z,70.751953
2018-11-12T22:20:31.204Z,70.648193
2018-11-12T22:20:50.908Z,70.343018
2018-11-12T22:21:10.461Z,70.3125
2018-11-12T22:21:30.257Z,70.3125
2018-11-12T22:21:49.807Z,70.3125
2018-11-12T22:22:09.444Z,70.20874
2018-11-12T22:22:29.014Z,70.007324
2018-11-12T22:22:49.576Z,70.007324
2018-11-12T22:23:09.116Z,70.007324
2018-11-12T22:23:28.649Z,70.20874
2018-11-12T22:23:48.252Z,70.10498
2018-11-12T22:24:07.837Z,70.10498
2018-11-12T22:24:28.354Z,70.10498
2018-11-12T22:24:47.916Z,70.007324
2018-11-12T22:25:07.904Z,70.074463
2018-11-12T22:25:27.788Z,69.873047
2018-11-12T22:25:47.391Z,69.873047
2018-11-12T22:26:06.976Z,69.769287
2018-11-12T22:26:26.488Z,69.665527
2018-11-12T22:26:46.362Z,69.464111
2018-11-12T22:27:06.203Z,69.360352
2018-11-12T22:27:25.819Z,69.464111
2018-11-12T22:27:45.567Z,69.226074
2018-11-12T22:28:06.147Z,69.128418
2018-11-12T22:28:26.029Z,69.024658
2018-11-12T22:28:45.482Z,68.920898
2018-11-12T22:29:05.125Z,68.920898
2018-11-12T22:29:25.592Z,69.024658
2018-11-12T22:29:45.151Z,69.024658
2018-11-12T22:30:04.661Z,69.128418
2018-11-12T22:30:24.297Z,69.128418
2018-11-12T22:30:44.018Z,69.024658
2018-11-12T22:31:06.351Z,69.329834
2018-11-12T22:31:28.000Z,69.128418
2018-11-12T22:31:48.440Z,69.024658
2018-11-12T22:32:08.158Z,68.920898
2018-11-12T22:32:27.712Z,69.024658
2018-11-12T22:32:47.839Z,69.024658
2018-11-12T22:33:07.383Z,69.024658
2018-11-12T22:33:26.936Z,69.024658
2018-11-12T22:33:46.467Z,68.920898
2018-11-12T22:34:06.126Z,69.024658
2018-11-12T22:34:25.711Z,69.024658
2018-11-12T22:34:45.375Z,69.024658
2018-11-12T22:35:04.930Z,69.024658
2018-11-12T22:35:24.500Z,69.226074
2018-11-12T22:35:44.084Z,69.024658
2018-11-12T22:36:03.644Z,69.024658
2018-11-12T22:36:24.310Z,68.823242
2018-11-12T22:36:43.957Z,68.719482
2018-11-12T22:37:04.106Z,68.719482
2018-11-12T22:37:23.790Z,68.920898
2018-11-12T22:37:43.946Z,69.024658
2018-11-12T22:38:03.499Z,68.719482
2018-11-12T22:38:23.103Z,68.719482
2018-11-12T22:38:42.615Z,68.615723
2018-11-12T22:39:02.348Z,68.518066
2018-11-12T22:39:22.158Z,68.414307
2018-11-12T22:39:41.724Z,68.518066
2018-11-12T22:40:01.367Z,68.615723
2018-11-12T22:40:20.953Z,68.518066
2018-11-12T22:40:40.469Z,68.31665
2018-11-12T22:41:00.071Z,68.414307
2018-11-12T22:41:19.719Z,68.518066
2018-11-12T22:41:39.300Z,68.615723
2018-11-12T22:41:59.090Z,68.719482
2018-11-12T22:42:19.229Z,68.585205
2018-11-12T22:42:38.817Z,68.518066
2018-11-12T22:42:58.480Z,68.383789
2018-11-12T22:43:18.232Z,68.383789
2018-11-12T22:43:37.801Z,68.585205
2018-11-12T22:43:57.337Z,68.487549
2018-11-12T22:44:16.888Z,68.487549
2018-11-12T22:44:36.440Z,68.383789
2018-11-12T22:44:56.986Z,68.383789
2018-11-12T22:45:16.538Z,68.585205
2018-11-12T22:45:36.200Z,68.786621
2018-11-12T22:45:55.717Z,68.890381
2018-11-12T22:46:15.257Z,69.091797
2018-11-12T22:46:34.950Z,69.091797
2018-11-12T22:46:54.522Z,69.195557
2018-11-12T22:47:14.093Z,69.396973
2018-11-12T22:47:34.768Z,69.396973
2018-11-12T22:47:54.344Z,69.500732
2018-11-12T22:48:13.875Z,69.500732
2018-11-12T22:48:33.496Z,69.909668
2018-11-12T22:48:53.036Z,69.909668
2018-11-12T22:49:13.640Z,69.604492
2018-11-12T22:49:33.303Z,70.41626
2018-11-12T22:49:52.870Z,70.379639
2018-11-12T22:50:12.467Z,70.483398
2018-11-12T22:50:32.092Z,70.080566
2018-11-12T22:50:51.675Z,70.178223
2018-11-12T22:51:11.349Z,70.214844
2018-11-12T22:51:30.902Z,70.214844
2018-11-12T22:51:50.515Z,70.214844
2018-11-12T22:52:10.067Z,71.09375
2018-11-12T22:52:29.729Z,70.587158
2018-11-12T22:52:49.273Z,70.281982
2018-11-12T22:53:09.801Z,69.976807
2018-11-12T22:53:29.461Z,69.873047
2018-11-12T22:53:49.082Z,69.976807
2018-11-12T22:54:08.708Z,69.873047
2018-11-12T22:54:28.228Z,69.976807
2018-11-12T22:54:47.878Z,70.080566
2018-11-12T22:55:07.663Z,70.111084
2018-11-12T22:55:27.155Z,70.178223
2018-11-12T22:55:46.678Z,70.214844
2018-11-12T22:56:06.220Z,70.41626
2018-11-12T22:56:25.743Z,70.41626
2018-11-12T22:56:45.306Z,70.3125
2018-11-12T22:57:05.834Z,70.41626
2018-11-12T22:57:25.380Z,70.52002
2018-11-12T22:57:44.959Z,70.214844
2018-11-12T22:58:04.486Z,70.41626
2018-11-12T22:58:24.037Z,70.721436
2018-11-12T22:58:43.634Z,70.617676
2018-11-12T22:59:03.182Z,70.617676
2018-11-12T22:59:23.794Z,70.721436
2018-11-12T22:59:43.411Z,70.819092
2018-11-12T23:00:02.906Z,70.922852
2018-11-12T23:00:22.501Z,71.026611
2018-11-12T23:00:42.082Z,71.124268
2018-11-12T23:01:01.681Z,71.228027
2018-11-12T23:01:22.347Z,71.331787
2018-11-12T23:01:42.975Z,71.429443
2018-11-12T23:02:02.540Z,71.228027
2018-11-12T23:02:22.076Z,71.228027
2018-11-12T23:02:41.772Z,71.228027
2018-11-12T23:03:02.318Z,71.228027
2018-11-12T23:03:21.893Z,71.026611
2018-11-12T23:03:41.736Z,70.922852
2018-11-12T23:04:01.357Z,70.819092
2018-11-12T23:04:20.920Z,70.819092
2018-11-12T23:04:40.514Z,70.819092
2018-11-12T23:05:00.038Z,70.819092
2018-11-12T23:05:20.704Z,70.922852
2018-11-12T23:05:40.405Z,70.922852
2018-11-12T23:06:00.020Z,70.922852
2018-11-12T23:06:19.560Z,70.922852
2018-11-12T23:06:39.077Z,70.922852
2018-11-12T23:06:58.649Z,70.922852
2018-11-12T23:07:18.337Z,71.026611
2018-11-12T23:07:37.924Z,71.228027
2018-11-12T23:07:57.510Z,71.026611
2018-11-12T23:08:17.145Z,71.026611
2018-11-12T23:08:36.737Z,71.026611
2018-11-12T23:08:56.540Z,71.026611
2018-11-12T23:09:16.972Z,71.124268
2018-11-12T23:09:36.582Z,71.124268
2018-11-12T23:09:56.149Z,71.124268
2018-11-12T23:10:16.237Z,71.228027
2018-11-12T23:10:35.786Z,71.228027
2018-11-12T23:10:55.333Z,71.228027
2018-11-12T23:11:14.852Z,71.228027
2018-11-12T23:11:34.429Z,71.228027
2018-11-12T23:11:53.997Z,71.228027
2018-11-12T23:12:13.570Z,71.429443
2018-11-12T23:12:33.168Z,71.331787
2018-11-12T23:12:52.670Z,71.331787
2018-11-12T23:13:12.194Z,71.429443
2018-11-12T23:13:31.730Z,71.429443
2018-11-12T23:13:51.375Z,71.533203
2018-11-12T23:14:10.890Z,71.533203
2018-11-12T23:14:30.437Z,71.533203
2018-11-12T23:14:50.977Z,71.429443
2018-11-12T23:15:10.653Z,71.331787
2018-11-12T23:15:31.111Z,71.228027
2018-11-12T23:15:50.860Z,71.124268
2018-11-12T23:16:10.406Z,71.026611
2018-11-12T23:16:29.985Z,70.819092
2018-11-12T23:16:49.624Z,70.721436
2018-11-12T23:17:09.200Z,70.819092
2018-11-12T23:17:28.780Z,70.819092
2018-11-12T23:17:48.385Z,70.819092
2018-11-12T23:18:08.050Z,70.819092
2018-11-12T23:18:27.595Z,70.52002
2018-11-12T23:18:47.161Z,70.52002
2018-11-12T23:19:07.784Z,70.3125
2018-11-12T23:19:28.189Z,70.3125
2018-11-12T23:19:47.734Z,70.111084
2018-11-12T23:20:07.289Z,70.111084
2018-11-12T23:20:26.829Z,70.007324
2018-11-12T23:20:46.364Z,69.805908
2018-11-12T23:21:05.902Z,69.702148
2018-11-12T23:21:26.455Z,69.805908
2018-11-12T23:21:45.996Z,69.909668
2018-11-12T23:22:05.508Z,69.702148
2018-11-12T23:22:25.086Z,69.805908
2018-11-12T23:22:44.701Z,69.604492
2018-11-12T23:23:04.301Z,69.500732
2018-11-12T23:23:23.824Z,69.396973
2018-11-12T23:23:43.417Z,69.195557
2018-11-12T23:24:03.758Z,69.091797
2018-11-12T23:24:23.313Z,69.299316
2018-11-12T23:24:42.965Z,69.128418
2018-11-12T23:25:02.697Z,68.920898
2018-11-12T23:25:22.440Z,68.823242
2018-11-12T23:25:42.174Z,68.719482
2018-11-12T23:26:01.952Z,68.615723
2018-11-12T23:26:21.456Z,68.719482
2018-11-12T23:26:40.947Z,68.615723
2018-11-12T23:27:01.676Z,68.31665
2018-11-12T23:27:21.218Z,68.31665
2018-11-12T23:27:40.728Z,68.212891
2018-11-12T23:28:00.440Z,68.212891
2018-11-12T23:28:20.438Z,68.31665
2018-11-12T23:28:40.054Z,68.414307
2018-11-12T23:28:59.776Z,68.518066
2018-11-12T23:29:19.386Z,68.615723
2018-11-12T23:29:39.087Z,68.823242
2018-11-12T23:29:58.593Z,68.615723
2018-11-12T23:30:18.142Z,68.212891
2018-11-12T23:30:37.653Z,68.109131
2018-11-12T23:30:57.240Z,68.011475
2018-11-12T23:31:16.786Z,67.907715
2018-11-12T23:31:36.328Z,68.011475
2018-11-12T23:31:55.857Z,68.011475
2018-11-12T23:32:15.364Z,67.907715
2018-11-12T23:32:34.986Z,68.011475
2018-11-12T23:32:54.579Z,68.011475
2018-11-12T23:33:14.166Z,68.011475
2018-11-12T23:33:33.911Z,68.011475
2018-11-12T23:33:53.593Z,68.31665
2018-11-12T23:34:13.168Z,68.31665
2018-11-12T23:34:32.679Z,68.212891
2018-11-12T23:34:52.264Z,68.31665
2018-11-12T23:35:11.846Z,68.414307
2018-11-12T23:35:31.476Z,68.31665
2018-11-12T23:35:52.896Z,68.31665
2018-11-12T23:36:12.488Z,68.31665
2018-11-12T23:36:32.132Z,68.31665
2018-11-12T23:36:51.961Z,68.31665
2018-11-12T23:37:12.883Z,68.31665
2018-11-12T23:37:32.534Z,68.414307
2018-11-12T23:37:52.248Z,68.414307
2018-11-12T23:38:11.979Z,68.414307
2018-11-12T23:38:32.025Z,68.31665
2018-11-12T23:38:51.685Z,68.31665
2018-11-12T23:39:12.287Z,68.31665
2018-11-12T23:39:32.004Z,68.31665
2018-11-12T23:39:52.435Z,68.31665
2018-11-12T23:40:12.090Z,68.31665
2018-11-12T23:40:31.651Z,68.414307
2018-11-12T23:40:52.859Z,68.31665
2018-11-12T23:41:12.591Z,68.414307
2018-11-12T23:41:32.127Z,68.518066
2018-11-12T23:41:51.703Z,68.719482
2018-11-12T23:42:12.250Z,69.024658
2018-11-12T23:42:31.862Z,69.262695
2018-11-12T23:42:51.442Z,69.464111
2018-11-12T23:43:11.554Z,69.769287
2018-11-12T23:43:31.207Z,70.074463
2018-11-12T23:43:50.890Z,70.3125
2018-11-12T23:44:10.631Z,70.513916
2018-11-12T23:44:30.435Z,70.715332
2018-11-12T23:44:50.059Z,71.020508
2018-11-12T23:45:09.674Z,71.228027
2018-11-12T23:45:29.226Z,71.362305
2018-11-12T23:45:48.725Z,71.563721
2018-11-12T23:46:08.516Z,71.533203
2018-11-12T23:46:28.161Z,71.636963
2018-11-12T23:46:47.687Z,71.636963
2018-11-12T23:47:07.173Z,71.636963
2018-11-12T23:47:27.088Z,71.429443
2018-11-12T23:47:46.800Z,71.325684
2018-11-12T23:48:06.513Z,71.09375
2018-11-12T23:48:26.224Z,70.88623
2018-11-12T23:48:46.751Z,70.684814
2018-11-12T23:49:06.504Z,70.483398
2018-11-12T23:49:26.670Z,70.483398
2018-11-12T23:49:46.352Z,70.581055
2018-11-12T23:50:06.139Z,70.483398
2018-11-12T23:50:25.679Z,70.379639
2018-11-12T23:50:45.887Z,70.275879
2018-11-12T23:51:06.411Z,70.275879
2018-11-12T23:51:26.082Z,70.275879
2018-11-12T23:51:45.642Z,70.275879
2018-11-12T23:52:05.340Z,70.275879
2018-11-12T23:52:25.741Z,70.178223
2018-11-12T23:52:45.321Z,70.074463
2018-11-12T23:53:06.100Z,69.970703
2018-11-12T23:53:25.738Z,69.836426
2018-11-12T23:53:45.420Z,69.836426
2018-11-12T23:54:05.095Z,69.836426
2018-11-12T23:54:24.728Z,69.836426
2018-11-12T23:54:45.024Z,69.836426
2018-11-12T23:55:04.530Z,69.836426
2018-11-12T23:55:25.853Z,69.73877
2018-11-12T23:55:45.427Z,69.836426
2018-11-12T23:56:05.640Z,69.73877
2018-11-12T23:56:25.285Z,69.73877
2018-11-12T23:56:44.864Z,69.63501
2018-11-12T23:57:04.487Z,69.63501
2018-11-12T23:57:24.579Z,69.433594